Time;durP1;ratioP1;P1;durP2;ratioP2;P2;SDS_P1;SDS_P2;PMS_P1;PMS_P2;Temp;Humidity;BMP_temperature;BMP_pressure;BME280_temperature;BME280_humidity;BME280_pressure;Samples;Min_cycle;Max_cycle;Signal;HPM_P1;HPM_P2
2022/05/15 00:01:04;;;;;;;;;;;13.90;97.50;;;;;;5003490;28;19933;-66
2022/05/15 00:03:31;;;;;;;;;;;13.90;97.80;;;;;;4997635;28;19925;-67
2022/05/15 00:05:59;;;;;;;;;;;13.70;98.20;;;;;;5003844;28;19925;-66
2022/05/15 00:08:26;;;;;;;;;;;13.60;98.80;;;;;;5004390;28;19998;-67
2022/05/15 00:10:53;;;;;;;;;;;13.70;99.50;;;;;;5005777;28;19990;-67
2022/05/15 00:13:22;;;;;;;;;;;13.60;99.60;;;;;;5004798;28;20029;-67
2022/05/15 00:15:49;;;;;;;;;;;13.60;99.80;;;;;;5006673;28;19929;-67
2022/05/15 00:18:16;;;;;;;;;;;13.60;99.80;;;;;;5004294;28;19932;-67
2022/05/15 00:20:42;;;;;;;;;;;13.60;99.80;;;;;;5005019;28;19930;-67
2022/05/15 00:23:10;;;;;;;;;;;13.50;99.90;;;;;;5002950;28;19926;-67
2022/05/15 00:25:37;;;;;;;;;;;13.50;99.90;;;;;;5004582;28;19933;-67
2022/05/15 00:28:04;;;;;;;;;;;13.50;99.90;;;;;;5005633;28;20294;-67
2022/05/15 00:30:32;;;;;;;;;;;13.40;99.90;;;;;;5005682;28;19926;-67
2022/05/15 00:32:59;;;;;;;;;;;13.30;99.90;;;;;;5006361;28;19948;-67
2022/05/15 00:35:26;;;;;;;;;;;13.20;99.90;;;;;;5003159;28;19937;-67
2022/05/15 00:37:53;;;;;;;;;;;13.20;99.90;;;;;;5000455;28;20299;-66
2022/05/15 00:40:21;;;;;;;;;;;13.20;99.90;;;;;;5001641;28;20399;-67
2022/05/15 00:42:51;;;;;;;;;;;13.20;99.90;;;;;;5002627;28;20374;-67
2022/05/15 00:45:19;;;;;;;;;;;13.20;99.90;;;;;;5003335;28;20555;-67
2022/05/15 00:47:48;;;;;;;;;;;13.20;99.90;;;;;;5003589;28;19926;-67
2022/05/15 00:50:16;;;;;;;;;;;13.10;99.90;;;;;;5003234;28;20372;-67
2022/05/15 00:52:45;;;;;;;;;;;13.10;99.90;;;;;;5003238;28;20299;-66
2022/05/15 00:55:14;;;;;;;;;;;12.90;99.90;;;;;;5001321;28;19926;-68
2022/05/15 00:57:43;;;;;;;;;;;12.90;99.90;;;;;;5002750;28;19926;-67
2022/05/15 01:00:11;;;;;;;;;;;12.90;99.90;;;;;;5002816;28;19925;-68
2022/05/15 01:02:39;;;;;;;;;;;12.90;99.90;;;;;;5002881;28;19940;-67
2022/05/15 01:05:09;;;;;;;;;;;13.00;99.90;;;;;;5004050;28;20431;-67
2022/05/15 01:07:35;;;;;;;;;;;13.00;99.90;;;;;;5003178;28;20016;-68
2022/05/15 01:10:02;;;;;;;;;;;13.10;99.90;;;;;;5003116;28;19975;-68
2022/05/15 01:12:29;;;;;;;;;;;13.10;99.90;;;;;;5001109;28;19932;-68
2022/05/15 01:14:57;;;;;;;;;;;13.10;99.90;;;;;;5002229;28;20414;-68
2022/05/15 01:17:24;;;;;;;;;;;13.00;99.90;;;;;;5004575;28;19941;-68
2022/05/15 01:19:51;;;;;;;;;;;13.00;99.90;;;;;;5002801;28;20012;-68
2022/05/15 01:22:19;;;;;;;;;;;12.90;99.90;;;;;;5002507;28;19937;-68
2022/05/15 01:24:46;;;;;;;;;;;12.80;99.90;;;;;;5005875;28;19932;-68
2022/05/15 01:27:13;;;;;;;;;;;12.90;99.90;;;;;;5000260;28;20414;-65
2022/05/15 01:29:41;;;;;;;;;;;12.80;99.90;;;;;;4998150;28;19925;-66
2022/05/15 01:32:08;;;;;;;;;;;12.80;99.90;;;;;;4999838;28;19995;-67
2022/05/15 01:34:35;;;;;;;;;;;12.80;99.90;;;;;;5002339;28;20377;-67
2022/05/15 01:37:01;;;;;;;;;;;12.80;99.90;;;;;;5003740;28;20466;-67
2022/05/15 01:39:30;;;;;;;;;;;12.80;99.90;;;;;;4998663;28;20011;-67
2022/05/15 01:41:57;;;;;;;;;;;12.70;99.90;;;;;;5000492;28;19926;-67
2022/05/15 01:44:24;;;;;;;;;;;12.60;99.90;;;;;;5001320;28;19925;-67
2022/05/15 01:46:51;;;;;;;;;;;12.70;99.90;;;;;;5003237;28;19925;-68
2022/05/15 01:49:18;;;;;;;;;;;12.70;99.90;;;;;;5005132;28;20274;-67
2022/05/15 01:51:45;;;;;;;;;;;12.70;99.90;;;;;;5003810;28;19926;-67
2022/05/15 01:54:12;;;;;;;;;;;12.70;99.90;;;;;;5001501;28;19926;-67
2022/05/15 01:56:40;;;;;;;;;;;12.70;99.90;;;;;;5003465;28;19932;-68
2022/05/15 01:59:08;;;;;;;;;;;12.60;99.90;;;;;;5005982;28;20388;-67
2022/05/15 02:01:35;;;;;;;;;;;12.60;99.90;;;;;;5003458;28;20654;-67
2022/05/15 02:04:01;;;;;;;;;;;12.60;99.90;;;;;;5003661;28;20016;-68
2022/05/15 02:06:28;;;;;;;;;;;12.60;99.90;;;;;;5007996;28;20352;-67
2022/05/15 02:08:55;;;;;;;;;;;12.60;99.90;;;;;;5006352;28;19933;-66
2022/05/15 02:11:22;;;;;;;;;;;12.50;99.90;;;;;;5005899;28;19932;-66
2022/05/15 02:13:50;;;;;;;;;;;12.50;99.90;;;;;;5008230;28;19999;-67
2022/05/15 02:16:16;;;;;;;;;;;12.50;99.90;;;;;;5002867;28;20384;-67
2022/05/15 02:18:43;;;;;;;;;;;12.40;99.90;;;;;;5005521;28;20587;-67
2022/05/15 02:21:10;;;;;;;;;;;12.30;99.90;;;;;;5007958;28;19933;-67
2022/05/15 02:23:37;;;;;;;;;;;12.20;99.90;;;;;;5004238;28;19925;-66
2022/05/15 02:26:03;;;;;;;;;;;12.10;99.90;;;;;;5007845;28;19971;-68
2022/05/15 02:28:30;;;;;;;;;;;12.00;99.90;;;;;;5006022;28;19936;-67
2022/05/15 02:30:58;;;;;;;;;;;11.80;99.90;;;;;;5005747;28;19932;-66
2022/05/15 02:33:25;;;;;;;;;;;11.70;99.90;;;;;;5007275;28;19925;-67
2022/05/15 02:35:51;;;;;;;;;;;11.60;99.90;;;;;;5002682;28;20372;-67
2022/05/15 02:38:18;;;;;;;;;;;11.50;99.90;;;;;;5001213;28;19925;-67
2022/05/15 02:40:45;;;;;;;;;;;11.50;99.90;;;;;;5006724;28;20275;-67
2022/05/15 02:43:11;;;;;;;;;;;11.60;99.90;;;;;;5005875;28;20425;-67
2022/05/15 02:45:38;;;;;;;;;;;11.60;99.90;;;;;;5006236;28;20353;-68
2022/05/15 02:51:03;;;;;;;;;;;11.60;99.90;;;;;;5001512;28;20346;-67
2022/05/15 02:51:05;;;;;;;;;;;11.50;99.90;;;;;;5002913;28;19933;-67
2022/05/15 02:53:32;;;;;;;;;;;11.50;99.90;;;;;;5003816;28;20386;-67
2022/05/15 02:55:59;;;;;;;;;;;11.30;99.90;;;;;;5006684;28;20316;-68
2022/05/15 02:58:26;;;;;;;;;;;11.40;99.90;;;;;;5005196;28;19937;-67
2022/05/15 03:00:53;;;;;;;;;;;11.30;99.90;;;;;;5006769;28;20004;-66
2022/05/15 03:03:21;;;;;;;;;;;11.30;99.90;;;;;;5002873;28;19933;-67
2022/05/15 03:05:47;;;;;;;;;;;11.20;99.90;;;;;;5004714;28;19932;-67
2022/05/15 03:08:14;;;;;;;;;;;11.20;99.90;;;;;;5004347;28;19932;-67
2022/05/15 03:10:41;;;;;;;;;;;11.20;99.90;;;;;;5005759;28;20011;-68
2022/05/15 03:13:07;;;;;;;;;;;11.10;99.90;;;;;;5000818;28;20016;-68
2022/05/15 03:15:34;;;;;;;;;;;11.00;99.90;;;;;;5004915;28;19929;-69
2022/05/15 03:18:01;;;;;;;;;;;10.90;99.90;;;;;;5005169;28;20012;-69
2022/05/15 03:20:29;;;;;;;;;;;10.80;99.90;;;;;;5005615;28;20288;-69
2022/05/15 03:22:56;;;;;;;;;;;10.80;99.90;;;;;;5003546;28;19925;-69
2022/05/15 03:25:23;;;;;;;;;;;10.80;99.90;;;;;;5005880;28;20308;-68
2022/05/15 03:27:50;;;;;;;;;;;10.80;99.90;;;;;;5004503;28;20289;-69
2022/05/15 03:30:17;;;;;;;;;;;10.80;99.90;;;;;;5006038;28;19933;-68
2022/05/15 03:32:46;;;;;;;;;;;10.80;99.90;;;;;;5006750;28;19929;-68
2022/05/15 03:35:14;;;;;;;;;;;10.80;99.90;;;;;;5001205;28;19957;-68
2022/05/15 03:37:43;;;;;;;;;;;10.70;99.90;;;;;;5006140;28;19945;-68
2022/05/15 03:40:10;;;;;;;;;;;10.70;99.90;;;;;;5006749;28;20300;-68
2022/05/15 03:42:37;;;;;;;;;;;10.70;99.90;;;;;;5006518;28;20372;-68
2022/05/15 03:45:04;;;;;;;;;;;10.70;99.90;;;;;;5007193;28;19925;-68
2022/05/15 03:47:31;;;;;;;;;;;10.80;99.90;;;;;;5009493;28;19925;-68
2022/05/15 03:50:01;;;;;;;;;;;10.80;99.90;;;;;;5009458;28;19926;-68
2022/05/15 03:52:27;;;;;;;;;;;10.90;99.90;;;;;;5004740;28;20283;-68
2022/05/15 03:54:55;;;;;;;;;;;10.80;99.90;;;;;;5007469;28;20005;-68
2022/05/15 03:57:22;;;;;;;;;;;10.90;99.90;;;;;;5009128;28;19926;-68
2022/05/15 03:59:49;;;;;;;;;;;11.00;99.90;;;;;;5004705;28;20018;-67
2022/05/15 04:02:15;;;;;;;;;;;11.00;99.90;;;;;;5000577;28;19986;-68
2022/05/15 04:04:42;;;;;;;;;;;11.00;99.90;;;;;;5007270;28;19976;-68
2022/05/15 04:07:09;;;;;;;;;;;11.00;99.90;;;;;;5009376;28;19926;-69
2022/05/15 04:09:40;;;;;;;;;;;11.00;99.90;;;;;;5007714;28;19932;-68
2022/05/15 04:12:09;;;;;;;;;;;11.00;99.90;;;;;;5007224;28;20412;-68
2022/05/15 04:14:36;;;;;;;;;;;11.10;99.90;;;;;;5007391;28;19925;-68
2022/05/15 04:17:03;;;;;;;;;;;11.10;99.90;;;;;;5008706;28;20002;-68
2022/05/15 04:19:29;;;;;;;;;;;11.10;99.90;;;;;;4996166;28;19965;-69
2022/05/15 04:21:58;;;;;;;;;;;11.10;99.90;;;;;;4992030;28;19929;-68
2022/05/15 04:24:25;;;;;;;;;;;11.00;99.90;;;;;;5005484;28;19961;-69
2022/05/15 04:26:54;;;;;;;;;;;11.00;99.90;;;;;;5008685;28;19929;-68
2022/05/15 04:29:24;;;;;;;;;;;11.00;99.90;;;;;;5006563;28;19925;-69
2022/05/15 04:31:55;;;;;;;;;;;11.00;99.90;;;;;;5006983;28;19929;-70
2022/05/15 04:34:22;;;;;;;;;;;11.10;99.90;;;;;;5005599;28;20016;-68
2022/05/15 04:36:49;;;;;;;;;;;11.10;99.90;;;;;;5005275;28;19934;-69
2022/05/15 04:39:16;;;;;;;;;;;11.20;99.90;;;;;;4997055;28;19930;-69
2022/05/15 04:41:43;;;;;;;;;;;11.30;99.90;;;;;;4994644;28;20285;-68
2022/05/15 04:44:09;;;;;;;;;;;11.40;99.90;;;;;;5002013;28;19926;-69
2022/05/15 04:46:38;;;;;;;;;;;11.50;99.90;;;;;;5003190;28;19925;-68
2022/05/15 04:49:05;;;;;;;;;;;11.60;99.90;;;;;;5004142;28;19932;-68
2022/05/15 04:51:32;;;;;;;;;;;11.60;99.90;;;;;;5007682;28;19929;-69
2022/05/15 04:53:59;;;;;;;;;;;11.60;99.90;;;;;;5003535;28;19926;-68
2022/05/15 04:56:26;;;;;;;;;;;11.70;99.90;;;;;;5001752;28;20012;-68
2022/05/15 04:58:53;;;;;;;;;;;11.70;99.90;;;;;;5001895;28;20535;-68
2022/05/15 05:01:19;;;;;;;;;;;11.80;99.90;;;;;;4992098;28;19933;-68
2022/05/15 05:03:47;;;;;;;;;;;11.90;99.90;;;;;;4997432;28;19978;-68
2022/05/15 05:06:14;;;;;;;;;;;11.90;99.90;;;;;;5007234;28;19926;-68
2022/05/15 05:08:41;;;;;;;;;;;12.00;99.90;;;;;;5004957;28;19932;-68
2022/05/15 05:11:07;;;;;;;;;;;12.10;99.90;;;;;;5008120;28;19929;-68
2022/05/15 05:13:34;;;;;;;;;;;12.10;99.90;;;;;;5006064;28;19948;-68
2022/05/15 05:16:01;;;;;;;;;;;12.20;99.90;;;;;;4999334;28;19933;-69
2022/05/15 05:18:27;;;;;;;;;;;12.30;99.90;;;;;;5006456;28;19948;-67
2022/05/15 05:20:56;;;;;;;;;;;12.30;99.90;;;;;;5007149;28;19931;-68
2022/05/15 05:23:22;;;;;;;;;;;12.40;99.90;;;;;;5001885;28;19926;-65
2022/05/15 05:25:49;;;;;;;;;;;12.40;99.90;;;;;;5007256;28;19926;-66
2022/05/15 05:28:16;;;;;;;;;;;12.40;99.90;;;;;;5006345;28;20392;-66
2022/05/15 05:30:43;;;;;;;;;;;12.50;99.90;;;;;;4997536;28;20372;-66
2022/05/15 05:33:10;;;;;;;;;;;12.60;99.90;;;;;;4999869;28;20404;-65
2022/05/15 05:35:37;;;;;;;;;;;12.60;99.90;;;;;;5006026;28;19932;-66
2022/05/15 05:38:06;;;;;;;;;;;12.80;99.90;;;;;;5005483;28;19934;-66
2022/05/15 05:40:32;;;;;;;;;;;12.90;99.90;;;;;;5008283;28;20353;-66
2022/05/15 05:42:59;;;;;;;;;;;12.90;99.90;;;;;;5006624;28;19925;-66
2022/05/15 05:45:26;;;;;;;;;;;13.10;99.90;;;;;;5006550;28;19929;-66
2022/05/15 05:47:54;;;;;;;;;;;13.10;99.90;;;;;;5005805;28;19939;-66
2022/05/15 05:50:22;;;;;;;;;;;13.30;99.90;;;;;;5001223;28;19926;-66
2022/05/15 05:52:49;;;;;;;;;;;13.40;99.90;;;;;;5000733;28;19926;-66
2022/05/15 05:55:18;;;;;;;;;;;14.40;99.90;;;;;;5005642;28;19932;-67
2022/05/15 05:57:45;;;;;;;;;;;15.60;98.90;;;;;;5007608;28;19933;-66
2022/05/15 06:00:13;;;;;;;;;;;16.40;96.40;;;;;;5002185;28;19933;-64
2022/05/15 06:02:40;;;;;;;;;;;17.10;92.80;;;;;;5004883;28;19978;-65
2022/05/15 06:05:06;;;;;;;;;;;18.00;87.50;;;;;;5003561;28;19929;-65
2022/05/15 06:07:34;;;;;;;;;;;18.80;80.70;;;;;;5004792;28;19957;-65
2022/05/15 06:10:01;;;;;;;;;;;18.60;77.80;;;;;;5005431;28;20376;-66
2022/05/15 06:12:29;;;;;;;;;;;17.90;80.00;;;;;;5007964;28;19932;-65
2022/05/15 06:14:55;;;;;;;;;;;16.80;82.00;;;;;;5006346;28;19925;-65
2022/05/15 06:17:22;;;;;;;;;;;16.10;87.90;;;;;;5004607;28;19925;-64
2022/05/15 06:19:49;;;;;;;;;;;15.80;90.10;;;;;;5004425;28;20406;-65
2022/05/15 06:22:16;;;;;;;;;;;15.80;90.90;;;;;;5003815;28;19926;-65
2022/05/15 06:24:43;;;;;;;;;;;15.70;91.20;;;;;;5006369;28;19955;-64
2022/05/15 06:27:09;;;;;;;;;;;15.60;91.40;;;;;;5008873;28;19925;-64
2022/05/15 06:29:38;;;;;;;;;;;15.60;91.80;;;;;;5005211;28;19925;-65
2022/05/15 06:32:06;;;;;;;;;;;15.60;91.90;;;;;;4999459;28;19926;-65
2022/05/15 06:34:33;;;;;;;;;;;15.70;91.60;;;;;;4999387;28;19925;-67
2022/05/15 06:36:59;;;;;;;;;;;15.50;92.20;;;;;;5003642;28;20024;-66
2022/05/15 06:39:26;;;;;;;;;;;15.50;92.00;;;;;;5001515;28;19925;-66
2022/05/15 06:41:57;;;;;;;;;;;15.60;92.40;;;;;;5004476;28;19930;-66
2022/05/15 06:44:23;;;;;;;;;;;15.80;92.40;;;;;;5004021;28;19932;-67
2022/05/15 06:46:51;;;;;;;;;;;16.00;91.50;;;;;;5009850;28;19992;-64
2022/05/15 06:49:18;;;;;;;;;;;17.40;88.50;;;;;;5008759;28;20039;-66
2022/05/15 06:51:45;;;;;;;;;;;19.10;81.60;;;;;;5007912;28;20379;-66
2022/05/15 06:54:11;;;;;;;;;;;19.90;73.20;;;;;;5005888;28;19925;-67
2022/05/15 06:59:22;;;;;;;;;;;19.70;66.10;;;;;;5008934;28;20404;-66
2022/05/15 07:01:49;;;;;;;;;;;20.80;59.40;;;;;;5007736;28;20028;-66
2022/05/15 07:04:17;;;;;;;;;;;21.10;58.10;;;;;;5009103;28;20424;-68
2022/05/15 07:06:44;;;;;;;;;;;22.00;55.60;;;;;;5008113;28;19925;-67
2022/05/15 07:09:11;;;;;;;;;;;22.30;52.00;;;;;;5000039;28;19929;-67
2022/05/15 07:11:39;;;;;;;;;;;22.10;50.90;;;;;;5007832;28;20464;-68
2022/05/15 07:14:05;;;;;;;;;;;21.70;51.30;;;;;;5008326;28;19926;-68
2022/05/15 07:16:32;;;;;;;;;;;22.60;48.10;;;;;;5010954;28;20273;-68
2022/05/15 07:18:59;;;;;;;;;;;22.20;48.20;;;;;;5005738;28;19926;-67
2022/05/15 07:21:27;;;;;;;;;;;22.90;46.40;;;;;;5010993;28;19948;-67
2022/05/15 07:23:54;;;;;;;;;;;24.70;43.40;;;;;;5005780;28;19925;-66
2022/05/15 07:26:20;;;;;;;;;;;23.00;43.10;;;;;;5011231;28;19932;-67
2022/05/15 07:28:50;;;;;;;;;;;24.20;41.50;;;;;;5000645;28;20047;-68
2022/05/15 07:31:18;;;;;;;;;;;23.30;41.50;;;;;;5010778;28;19926;-67
2022/05/15 07:33:45;;;;;;;;;;;22.10;41.90;;;;;;5004915;28;19961;-68
2022/05/15 07:36:11;;;;;;;;;;;22.50;42.20;;;;;;5008979;28;20698;-68
2022/05/15 07:38:39;;;;;;;;;;;22.90;40.30;;;;;;5007925;28;20354;-68
2022/05/15 07:41:06;;;;;;;;;;;22.40;42.40;;;;;;5011125;28;19925;-68
2022/05/15 07:43:33;;;;;;;;;;;22.30;42.00;;;;;;5008922;28;19929;-68
2022/05/15 07:45:59;;;;;;;;;;;23.60;39.30;;;;;;5011291;28;19926;-68
2022/05/15 07:48:26;;;;;;;;;;;22.40;40.40;;;;;;5006138;28;19932;-68
2022/05/15 07:50:55;;;;;;;;;;;21.90;41.90;;;;;;5007544;28;20376;-67
2022/05/15 07:53:22;;;;;;;;;;;22.70;40.90;;;;;;5007412;28;19932;-68
2022/05/15 07:55:50;;;;;;;;;;;23.20;40.30;;;;;;5004160;28;20295;-67
2022/05/15 07:58:16;;;;;;;;;;;24.50;37.90;;;;;;5002687;28;20155;-67
2022/05/15 08:00:43;;;;;;;;;;;24.30;36.60;;;;;;5007600;28;19973;-67
2022/05/15 08:03:11;;;;;;;;;;;24.70;35.50;;;;;;5002378;28;20318;-68
2022/05/15 08:08:22;;;;;;;;;;;24.40;35.30;;;;;;5002805;28;20058;-67
2022/05/15 08:10:50;;;;;;;;;;;24.30;34.10;;;;;;5005836;28;19934;-67
2022/05/15 08:13:18;;;;;;;;;;;25.40;34.50;;;;;;5001516;28;20337;-68
2022/05/15 08:15:46;;;;;;;;;;;24.60;33.60;;;;;;5007308;28;19931;-68
2022/05/15 08:23:44;;;;;;;;;;;25.10;31.40;;;;;;5000760;28;19985;-68
2022/05/15 08:26:12;;;;;;;;;;;25.20;30.50;;;;;;4998750;28;20008;-67
2022/05/15 08:28:39;;;;;;;;;;;25.70;29.20;;;;;;4997756;28;19925;-68
2022/05/15 08:31:08;;;;;;;;;;;26.40;28.20;;;;;;5000047;28;19930;-69
2022/05/15 08:33:35;;;;;;;;;;;26.60;28.00;;;;;;4999376;28;19973;-69
2022/05/15 08:36:02;;;;;;;;;;;28.30;25.60;;;;;;5003782;28;20384;-68
2022/05/15 08:38:29;;;;;;;;;;;26.30;25.10;;;;;;4999512;28;19931;-68
2022/05/15 08:40:58;;;;;;;;;;;25.80;25.50;;;;;;4998679;28;19926;-68
2022/05/15 08:43:41;;;;;;;;;;;26.40;25.30;;;;;;5002804;28;20456;-68
2022/05/15 08:46:22;;;;;;;;;;;28.40;23.00;;;;;;5004795;28;19964;-68
2022/05/15 08:48:49;;;;;;;;;;;30.00;19.50;;;;;;4997648;28;19932;-68
2022/05/15 08:51:16;;;;;;;;;;;30.10;18.40;;;;;;5006550;28;19929;-67
2022/05/15 08:53:43;;;;;;;;;;;;;;;;;;5003923;28;20009;-67
2022/05/15 08:56:12;;;;;;;;;;;27.30;20.40;;;;;;5005348;28;20230;-68
2022/05/15 08:58:46;;;;;;;;;;;27.10;21.00;;;;;;5003823;28;19926;-68
2022/05/15 09:01:15;;;;;;;;;;;26.20;22.50;;;;;;5005090;28;19932;-69
2022/05/15 09:03:41;;;;;;;;;;;26.20;21.80;;;;;;5004495;28;19965;-68
2022/05/15 09:06:10;;;;;;;;;;;26.50;21.80;;;;;;4999659;28;20020;-68
2022/05/15 09:08:48;;;;;;;;;;;26.20;22.10;;;;;;5000348;28;19969;-68
2022/05/15 09:11:16;;;;;;;;;;;27.10;20.30;;;;;;4999517;28;19925;-67
2022/05/15 09:13:47;;;;;;;;;;;26.10;21.50;;;;;;5003102;28;19925;-69
2022/05/15 09:16:16;;;;;;;;;;;25.40;22.10;;;;;;5000487;28;19992;-68
2022/05/15 09:18:44;;;;;;;;;;;25.50;22.60;;;;;;4993345;28;19931;-70
2022/05/15 09:21:12;;;;;;;;;;;26.20;20.60;;;;;;5004013;28;20460;-68
2022/05/15 09:23:39;;;;;;;;;;;27.20;20.00;;;;;;4998232;28;20042;-67
2022/05/15 09:26:12;;;;;;;;;;;26.00;22.10;;;;;;5003530;28;19977;-68
2022/05/15 09:28:42;;;;;;;;;;;25.50;22.60;;;;;;5000517;28;20595;-68
2022/05/15 09:31:20;;;;;;;;;;;25.60;23.50;;;;;;5005958;28;19932;-69
2022/05/15 09:33:50;;;;;;;;;;;27.80;18.10;;;;;;5006142;28;19932;-68
2022/05/15 09:36:18;;;;;;;;;;;26.90;18.20;;;;;;5003857;28;19933;-68
2022/05/15 09:38:45;;;;;;;;;;;27.50;16.50;;;;;;5003266;28;19947;-70
2022/05/15 09:43:57;;;;;;;;;;;25.20;19.50;;;;;;4998391;28;19971;-69
2022/05/15 09:46:26;;;;;;;;;;;25.60;17.80;;;;;;5001772;28;19934;-68
2022/05/15 09:48:54;;;;;;;;;;;25.50;18.40;;;;;;4999769;28;20414;-68
2022/05/15 09:51:29;;;;;;;;;;;26.40;17.20;;;;;;5002395;28;19933;-69
2022/05/15 09:53:57;;;;;;;;;;;28.20;15.80;;;;;;4998987;28;19930;-69
2022/05/15 09:56:28;;;;;;;;;;;29.00;13.40;;;;;;5005070;28;19969;-67
2022/05/15 09:58:58;;;;;;;;;;;28.90;13.00;;;;;;5000826;28;20361;-68
2022/05/15 10:01:28;;;;;;;;;;;28.70;13.50;;;;;;4998083;28;20455;-68
2022/05/15 10:03:56;;;;;;;;;;;27.50;14.00;;;;;;5005191;28;19925;-69
2022/05/15 10:06:26;;;;;;;;;;;26.40;15.30;;;;;;5002141;28;19965;-69
2022/05/15 10:09:10;;;;;;;;;;;25.30;17.80;;;;;;5001443;28;19944;-68
2022/05/15 10:11:38;;;;;;;;;;;24.80;18.30;;;;;;4997452;28;19933;-68
2022/05/15 10:14:06;;;;;;;;;;;24.30;19.60;;;;;;4999968;28;19941;-67
2022/05/15 10:16:36;;;;;;;;;;;24.10;19.50;;;;;;5000397;28;19933;-68
2022/05/15 10:19:06;;;;;;;;;;;24.30;19.00;;;;;;5003545;28;19990;-66
2022/05/15 10:21:36;;;;;;;;;;;24.10;18.80;;;;;;5002933;28;20008;-69
2022/05/15 10:24:05;;;;;;;;;;;23.80;19.10;;;;;;5000470;28;20731;-67
2022/05/15 10:26:36;;;;;;;;;;;24.20;18.30;;;;;;5001936;28;20198;-69
2022/05/15 10:29:08;;;;;;;;;;;24.70;19.00;;;;;;5000686;28;19930;-69
2022/05/15 10:31:39;;;;;;;;;;;24.60;17.90;;;;;;5007924;28;20040;-69
2022/05/15 10:34:11;;;;;;;;;;;24.60;17.70;;;;;;5003088;28;19933;-70
2022/05/15 10:37:01;;;;;;;;;;;24.00;18.60;;;;;;5003432;28;19990;-68
2022/05/15 10:39:34;;;;;;;;;;;24.30;19.60;;;;;;5002995;28;20076;-69
2022/05/15 10:42:13;;;;;;;;;;;24.30;18.70;;;;;;5000246;28;19925;-70
2022/05/15 10:44:44;;;;;;;;;;;24.30;19.00;;;;;;5002945;28;19932;-68
2022/05/15 10:47:14;;;;;;;;;;;24.40;18.70;;;;;;5006126;28;19926;-68
2022/05/15 10:49:57;;;;;;;;;;;24.70;17.50;;;;;;4996284;28;20029;-69
2022/05/15 10:52:34;;;;;;;;;;;25.10;16.90;;;;;;5001980;28;19925;-68
2022/05/15 10:57:51;;;;;;;;;;;25.50;16.50;;;;;;5009757;28;19986;-68
2022/05/15 11:00:20;;;;;;;;;;;25.50;16.40;;;;;;5006338;28;19932;-68
2022/05/15 11:02:56;;;;;;;;;;;25.30;17.80;;;;;;5007600;28;19960;-68
2022/05/15 11:05:26;;;;;;;;;;;25.30;17.20;;;;;;5005778;28;19932;-69
2022/05/15 11:07:56;;;;;;;;;;;24.60;17.00;;;;;;5008940;28;20376;-68
2022/05/15 11:10:26;;;;;;;;;;;24.90;17.70;;;;;;5008969;28;19962;-67
2022/05/15 11:12:58;;;;;;;;;;;24.90;16.90;;;;;;5008391;28;19968;-68
2022/05/15 11:15:36;;;;;;;;;;;24.80;17.40;;;;;;5007019;28;19930;-68
2022/05/15 11:18:08;;;;;;;;;;;25.20;17.20;;;;;;5008614;28;19929;-70
2022/05/15 11:20:38;;;;;;;;;;;25.00;17.30;;;;;;5004099;28;19936;-68
2022/05/15 11:23:07;;;;;;;;;;;25.20;17.10;;;;;;5006239;28;20181;-69
2022/05/15 11:25:36;;;;;;;;;;;25.10;17.30;;;;;;5005641;28;20402;-69
2022/05/15 11:28:06;;;;;;;;;;;25.20;16.90;;;;;;5008405;28;19980;-69
2022/05/15 11:30:39;;;;;;;;;;;25.70;17.50;;;;;;5008913;28;19925;-69
2022/05/15 11:33:08;;;;;;;;;;;25.80;15.90;;;;;;5005882;28;19933;-69
2022/05/15 11:35:37;;;;;;;;;;;25.80;14.50;;;;;;5005310;28;20343;-68
2022/05/15 11:38:21;;;;;;;;;;;25.40;15.50;;;;;;5007394;28;19941;-69
2022/05/15 11:40:49;;;;;;;;;;;25.10;15.40;;;;;;5002867;28;20034;-69
2022/05/15 11:43:35;;;;;;;;;;;25.40;16.40;;;;;;5006036;28;20365;-69
2022/05/15 11:46:06;;;;;;;;;;;25.80;16.00;;;;;;5024192;28;19933;-69
2022/05/15 11:48:50;;;;;;;;;;;26.10;14.60;;;;;;5007666;28;19925;-69
2022/05/15 11:51:40;;;;;;;;;;;26.50;13.50;;;;;;5003474;28;19932;-69
2022/05/15 11:54:08;;;;;;;;;;;26.40;12.80;;;;;;5009099;28;19933;-68
2022/05/15 11:56:39;;;;;;;;;;;26.40;12.90;;;;;;4999903;28;19933;-69
2022/05/15 11:59:12;;;;;;;;;;;26.50;12.90;;;;;;4997718;28;19932;-69
2022/05/15 12:01:43;;;;;;;;;;;26.50;13.10;;;;;;5008149;28;19925;-69
2022/05/15 12:04:20;;;;;;;;;;;26.30;12.60;;;;;;5003038;28;19932;-69
2022/05/15 12:06:48;;;;;;;;;;;25.80;13.20;;;;;;5004502;28;20166;-69
2022/05/15 12:09:30;;;;;;;;;;;25.90;13.30;;;;;;5003282;28;20013;-69
2022/05/15 12:12:00;;;;;;;;;;;26.30;11.90;;;;;;5007868;28;19926;-69
2022/05/15 12:14:35;;;;;;;;;;;26.70;12.40;;;;;;4998595;28;19930;-68
2022/05/15 12:17:05;;;;;;;;;;;26.50;12.60;;;;;;5006799;28;20012;-68
2022/05/15 12:19:34;;;;;;;;;;;25.80;14.00;;;;;;5001410;28;19925;-69
2022/05/15 12:22:02;;;;;;;;;;;25.90;14.50;;;;;;5006307;28;19969;-69
2022/05/15 12:24:30;;;;;;;;;;;26.60;12.70;;;;;;5003865;28;19926;-69
2022/05/15 12:27:01;;;;;;;;;;;26.60;11.90;;;;;;5004478;28;19925;-68
2022/05/15 12:29:34;;;;;;;;;;;26.30;11.60;;;;;;5006438;28;19933;-68
2022/05/15 12:32:01;;;;;;;;;;;26.70;10.60;;;;;;5005288;28;19944;-68
2022/05/15 12:34:28;;;;;;;;;;;27.00;10.90;;;;;;5005238;28;21528;-68
2022/05/15 12:36:58;;;;;;;;;;;27.10;11.40;;;;;;5005335;28;20474;-68
2022/05/15 12:39:26;;;;;;;;;;;26.40;12.50;;;;;;5002753;28;19949;-69
2022/05/15 12:41:53;;;;;;;;;;;26.40;12.40;;;;;;5008857;28;19930;-69
2022/05/15 12:44:30;;;;;;;;;;;26.70;8.60;;;;;;5004477;28;19961;-68
2022/05/15 12:46:57;;;;;;;;;;;26.80;8.70;;;;;;5001674;28;20004;-68
2022/05/15 12:49:33;;;;;;;;;;;27.10;8.30;;;;;;5004415;28;19931;-69
2022/05/15 12:52:12;;;;;;;;;;;27.20;8.50;;;;;;4997464;28;19925;-69
2022/05/15 12:54:39;;;;;;;;;;;27.10;8.80;;;;;;5003655;28;20440;-68
2022/05/15 12:57:07;;;;;;;;;;;27.20;8.10;;;;;;5008234;28;20376;-69
2022/05/15 12:59:35;;;;;;;;;;;27.10;8.40;;;;;;5002529;28;19926;-69
2022/05/15 13:02:13;;;;;;;;;;;26.90;9.30;;;;;;5005172;28;20036;-68
2022/05/15 13:04:45;;;;;;;;;;;26.10;10.40;;;;;;5006398;28;19925;-68
2022/05/15 13:07:13;;;;;;;;;;;25.90;10.90;;;;;;5007154;28;19932;-67
2022/05/15 13:09:40;;;;;;;;;;;26.10;11.10;;;;;;5006221;28;19935;-68
2022/05/15 13:12:08;;;;;;;;;;;26.50;11.20;;;;;;5009029;28;19925;-68
2022/05/15 13:14:36;;;;;;;;;;;26.70;11.30;;;;;;5003767;28;20063;-68
2022/05/15 13:17:04;;;;;;;;;;;26.20;11.90;;;;;;5007165;28;19998;-69
2022/05/15 13:19:33;;;;;;;;;;;25.70;12.00;;;;;;5006460;28;19982;-68
2022/05/15 13:22:01;;;;;;;;;;;25.70;13.00;;;;;;5008862;28;20032;-68
2022/05/15 13:24:31;;;;;;;;;;;26.20;13.30;;;;;;5004388;28;19987;-69
2022/05/15 13:26:58;;;;;;;;;;;26.60;10.50;;;;;;5008449;28;20295;-69
2022/05/15 13:29:27;;;;;;;;;;;26.80;10.90;;;;;;5004221;28;20700;-68
2022/05/15 13:31:57;;;;;;;;;;;27.20;10.60;;;;;;5005204;28;19925;-68
2022/05/15 13:34:26;;;;;;;;;;;27.60;10.50;;;;;;5004161;28;19987;-68
2022/05/15 13:36:54;;;;;;;;;;;27.40;11.40;;;;;;5003576;28;20434;-68
2022/05/15 13:44:52;;;;;;;;;;;27.60;11.50;;;;;;5008126;28;19952;-68
2022/05/15 13:47:22;;;;;;;;;;;27.60;12.10;;;;;;5003966;28;20384;-68
2022/05/15 13:49:52;;;;;;;;;;;27.40;12.40;;;;;;5000942;28;19932;-68
2022/05/15 13:52:29;;;;;;;;;;;27.80;11.90;;;;;;4999609;28;19933;-68
2022/05/15 13:54:57;;;;;;;;;;;27.90;11.20;;;;;;5006513;28;19929;-68
2022/05/15 13:57:25;;;;;;;;;;;27.80;11.20;;;;;;5009877;28;19952;-68
2022/05/15 14:00:00;;;;;;;;;;;27.80;11.00;;;;;;5008599;28;20012;-68
2022/05/15 14:02:28;;;;;;;;;;;27.60;11.20;;;;;;5008576;28;19948;-69
2022/05/15 14:05:10;;;;;;;;;;;27.80;11.40;;;;;;5004064;28;20029;-69
2022/05/15 14:07:39;;;;;;;;;;;27.90;11.50;;;;;;5006119;28;20404;-68
2022/05/15 14:10:17;;;;;;;;;;;27.20;12.20;;;;;;5005151;28;19933;-68
2022/05/15 14:12:46;;;;;;;;;;;26.90;12.50;;;;;;5009776;28;19948;-69
2022/05/15 14:15:28;;;;;;;;;;;26.50;12.50;;;;;;5005583;28;20052;-68
2022/05/15 14:17:58;;;;;;;;;;;26.70;12.70;;;;;;5005763;28;20378;-68
2022/05/15 14:20:26;;;;;;;;;;;26.70;12.30;;;;;;5007444;28;19965;-68
2022/05/15 14:22:53;;;;;;;;;;;26.70;12.40;;;;;;5008278;28;19978;-69
2022/05/15 14:25:20;;;;;;;;;;;27.10;12.60;;;;;;5007748;28;20004;-68
2022/05/15 14:27:48;;;;;;;;;;;27.40;11.90;;;;;;5008829;28;20311;-68
2022/05/15 14:30:15;;;;;;;;;;;27.70;10.90;;;;;;5026637;28;19928;-67
2022/05/15 14:32:42;;;;;;;;;;;28.10;10.70;;;;;;5006865;28;19989;-67
2022/05/15 14:35:10;;;;;;;;;;;27.40;11.40;;;;;;5006738;28;19937;-68
2022/05/15 14:37:37;;;;;;;;;;;26.80;12.30;;;;;;5004426;28;20392;-68
2022/05/15 14:40:04;;;;;;;;;;;27.20;12.00;;;;;;5005276;28;19932;-68
2022/05/15 14:42:31;;;;;;;;;;;27.60;11.40;;;;;;5010064;28;19925;-68
2022/05/15 14:44:59;;;;;;;;;;;27.70;11.00;;;;;;5007464;28;19932;-68
2022/05/15 14:47:27;;;;;;;;;;;27.80;11.00;;;;;;5009628;28;19984;-70
2022/05/15 14:49:55;;;;;;;;;;;27.40;12.80;;;;;;5006926;28;20016;-68